createdAt,value
2022-08-30T00:01:28.976Z,14.60
2022-08-30T00:03:58.453Z,14.50
2022-08-30T00:06:28.912Z,14.60
2022-08-30T00:08:57.239Z,14.40
2022-08-30T00:11:28.291Z,14.40
2022-08-30T00:13:58.254Z,14.40
2022-08-30T00:16:26.802Z,14.30
2022-08-30T00:18:54.948Z,14.30
2022-08-30T00:21:23.424Z,15.70
2022-08-30T00:23:50.740Z,14.20
2022-08-30T00:26:17.932Z,14.20
2022-08-30T00:28:45.028Z,14.20
2022-08-30T00:31:15.181Z,14.20
2022-08-30T00:33:42.820Z,14.10
2022-08-30T00:36:10.137Z,14.10
2022-08-30T00:38:37.203Z,14.10
2022-08-30T00:41:04.349Z,14.00
2022-08-30T00:43:36.743Z,14.00
2022-08-30T00:46:08.487Z,14.00
2022-08-30T00:48:42.869Z,13.90
2022-08-30T00:51:14.131Z,13.90
2022-08-30T00:53:49.040Z,13.80
2022-08-30T00:56:18.211Z,13.80
2022-08-30T00:58:52.166Z,13.80
2022-08-30T01:01:20.846Z,13.70
2022-08-30T01:03:49.047Z,13.70
2022-08-30T01:06:17.015Z,13.60
2022-08-30T01:08:46.605Z,13.60
2022-08-30T01:11:18.626Z,13.60
2022-08-30T01:13:47.437Z,13.60
2022-08-30T01:16:15.691Z,13.50
2022-08-30T01:18:44.615Z,13.50
2022-08-30T01:21:31.337Z,13.40
2022-08-30T01:24:01.092Z,13.40
2022-08-30T01:26:30.469Z,14.40
2022-08-30T01:29:05.009Z,13.40
2022-08-30T01:31:35.226Z,13.30
2022-08-30T01:34:07.809Z,13.30
2022-08-30T01:36:37.824Z,13.30
2022-08-30T01:39:15.365Z,13.20
2022-08-30T01:41:43.611Z,13.20
2022-08-30T01:44:12.900Z,13.20
2022-08-30T01:46:45.797Z,13.10
2022-08-30T01:49:17.224Z,13.10
2022-08-30T01:51:46.521Z,13.30
2022-08-30T01:54:14.191Z,13.10
2022-08-30T01:56:41.857Z,13.00
2022-08-30T01:59:09.045Z,13.00
2022-08-30T02:01:39.613Z,13.00
2022-08-30T02:04:08.992Z,13.00
2022-08-30T02:06:39.065Z,13.00
2022-08-30T02:09:06.302Z,12.90
2022-08-30T02:11:34.248Z,12.90
2022-08-30T02:14:01.345Z,12.80
2022-08-30T02:16:28.637Z,12.80
2022-08-30T02:18:58.869Z,12.80
2022-08-30T02:21:27.819Z,12.80
2022-08-30T02:23:55.525Z,12.70
2022-08-30T02:26:23.354Z,13.10
2022-08-30T02:28:50.603Z,12.70
2022-08-30T02:31:20.775Z,12.70
2022-08-30T02:33:51.468Z,12.70
2022-08-30T02:36:21.622Z,12.60
2022-08-30T02:38:50.346Z,12.60
2022-08-30T02:41:18.930Z,12.60
2022-08-30T02:43:46.804Z,12.50
2022-08-30T02:46:15.382Z,12.50
2022-08-30T02:48:43.618Z,12.50
2022-08-30T02:51:13.775Z,12.40
2022-08-30T02:53:43.929Z,12.50
2022-08-30T02:56:13.011Z,12.40
2022-08-30T02:58:42.558Z,12.40
2022-08-30T03:01:13.801Z,12.40
2022-08-30T03:03:44.218Z,12.30
2022-08-30T03:06:11.410Z,12.30
2022-08-30T03:08:38.908Z,12.30
2022-08-30T03:11:06.363Z,12.30
2022-08-30T03:13:33.781Z,12.30
2022-08-30T03:16:00.948Z,12.20
2022-08-30T03:18:28.690Z,12.20
2022-08-30T03:20:55.750Z,12.20
2022-08-30T03:23:24.401Z,12.10
2022-08-30T03:25:53.544Z,12.10
2022-08-30T03:28:21.526Z,12.10
2022-08-30T03:30:48.644Z,12.10
2022-08-30T03:33:16.210Z,12.10
2022-08-30T03:35:45.722Z,12.10
2022-08-30T03:38:12.944Z,12.10
2022-08-30T03:40:40.053Z,12.00
2022-08-30T03:43:07.659Z,12.00
2022-08-30T03:45:37.239Z,11.90
2022-08-30T03:48:04.968Z,11.90
2022-08-30T03:50:32.385Z,11.90
2022-08-30T03:53:01.492Z,11.90
2022-08-30T03:55:30.054Z,11.90
2022-08-30T03:57:57.674Z,11.90
2022-08-30T04:00:25.943Z,11.80
2022-08-30T04:02:53.066Z,11.80
2022-08-30T04:05:21.229Z,11.80
2022-08-30T04:07:48.413Z,11.70
2022-08-30T04:10:15.926Z,11.80
2022-08-30T04:12:47.425Z,11.30
2022-08-30T04:15:18.836Z,11.70
2022-08-30T04:17:46.715Z,11.70
2022-08-30T04:20:15.211Z,11.70
2022-08-30T04:22:42.625Z,11.70
2022-08-30T04:25:15.582Z,11.60
2022-08-30T04:27:45.501Z,11.60
2022-08-30T04:30:15.377Z,11.60
2022-08-30T04:32:43.792Z,11.60
2022-08-30T04:35:12.891Z,11.70
2022-08-30T04:37:40.167Z,11.50
2022-08-30T04:40:09.042Z,11.80
2022-08-30T04:42:37.377Z,11.50
2022-08-30T04:45:09.693Z,11.50
2022-08-30T04:47:39.176Z,11.50
2022-08-30T04:50:13.501Z,11.50
2022-08-30T04:52:40.816Z,11.50
2022-08-30T04:55:10.698Z,11.40
2022-08-30T04:57:38.929Z,11.50
2022-08-30T05:00:12.134Z,11.50
2022-08-30T05:02:41.223Z,11.40
2022-08-30T05:05:28.764Z,11.40
2022-08-30T05:07:56.107Z,11.40
2022-08-30T05:10:23.922Z,11.40
2022-08-30T05:12:51.011Z,11.40
2022-08-30T05:15:18.449Z,11.40
2022-08-30T05:17:45.845Z,11.40
2022-08-30T05:20:13.623Z,11.40
2022-08-30T05:22:53.524Z,11.40
2022-08-30T05:25:25.976Z,11.40
2022-08-30T05:27:53.888Z,11.40
2022-08-30T05:30:23.330Z,11.50
2022-08-30T05:32:51.019Z,11.40
2022-08-30T05:35:24.931Z,11.40
2022-08-30T05:37:53.673Z,11.40
2022-08-30T05:40:22.951Z,11.40
2022-08-30T05:42:50.048Z,11.40
2022-08-30T05:45:17.630Z,11.40
2022-08-30T05:47:44.755Z,11.40
2022-08-30T05:50:11.856Z,11.40
2022-08-30T05:52:41.905Z,11.50
2022-08-30T05:55:11.090Z,11.50
2022-08-30T05:57:40.566Z,11.60
2022-08-30T06:00:18.216Z,11.60
2022-08-30T06:02:45.973Z,11.60
2022-08-30T06:05:14.559Z,11.70
2022-08-30T06:07:43.538Z,11.70
2022-08-30T06:10:12.532Z,11.70
2022-08-30T06:12:39.794Z,11.70
2022-08-30T06:15:07.990Z,11.80
2022-08-30T06:17:35.042Z,11.80
2022-08-30T06:20:02.278Z,11.80
2022-08-30T06:22:29.353Z,11.90
2022-08-30T06:24:57.746Z,11.90
2022-08-30T06:27:25.470Z,11.90
2022-08-30T06:29:53.646Z,11.90
2022-08-30T06:32:20.822Z,11.90
2022-08-30T06:34:48.373Z,12.00
2022-08-30T06:37:29.125Z,12.10
2022-08-30T06:39:58.561Z,12.20
2022-08-30T06:42:31.873Z,12.30
2022-08-30T06:45:01.471Z,12.40
2022-08-30T06:47:29.881Z,12.50
2022-08-30T06:49:58.522Z,12.60
2022-08-30T06:52:25.958Z,12.80
2022-08-30T06:54:55.409Z,12.90
2022-08-30T06:57:22.528Z,13.20
2022-08-30T06:59:52.176Z,13.20
2022-08-30T07:02:21.354Z,13.40
2022-08-30T07:04:48.711Z,13.40
2022-08-30T07:07:15.885Z,13.50
2022-08-30T07:09:43.717Z,13.50
2022-08-30T07:12:13.142Z,13.60
2022-08-30T07:14:40.754Z,13.60
2022-08-30T07:17:32.489Z,13.60
2022-08-30T07:20:02.137Z,13.70
2022-08-30T07:22:29.404Z,13.80
2022-08-30T07:24:56.455Z,13.90
2022-08-30T07:27:23.599Z,13.90
2022-08-30T07:29:50.909Z,14.00
2022-08-30T07:32:18.074Z,14.00
2022-08-30T07:34:45.275Z,14.10
2022-08-30T07:37:17.989Z,14.20
2022-08-30T07:39:48.036Z,14.20
2022-08-30T07:42:16.408Z,14.30
2022-08-30T07:44:43.993Z,14.30
2022-08-30T07:47:11.790Z,14.50
2022-08-30T07:49:39.097Z,14.60
2022-08-30T07:52:06.311Z,14.70
2022-08-30T07:54:33.730Z,14.80
2022-08-30T07:57:00.799Z,14.90
2022-08-30T07:59:27.945Z,15.00
2022-08-30T08:01:55.248Z,15.10
2022-08-30T08:04:22.571Z,15.20
2022-08-30T08:06:49.742Z,15.30
2022-08-30T08:09:17.084Z,15.40
2022-08-30T08:11:44.547Z,15.50
2022-08-30T08:14:11.857Z,15.60
2022-08-30T08:16:39.035Z,15.70
2022-08-30T08:19:09.198Z,15.80
2022-08-30T08:21:37.278Z,15.90
2022-08-30T08:24:05.232Z,16.00
2022-08-30T08:26:36.953Z,16.10
2022-08-30T08:29:06.391Z,16.20
2022-08-30T08:31:33.977Z,16.30
2022-08-30T08:34:06.091Z,16.40
2022-08-30T08:36:35.730Z,16.50
2022-08-30T08:39:06.308Z,16.60
2022-08-30T08:42:04.538Z,16.80
2022-08-30T08:45:08.751Z,17.00
2022-08-30T08:47:58.482Z,17.10
2022-08-30T08:50:29.302Z,17.30
2022-08-30T08:53:45.208Z,17.40
2022-08-30T08:56:17.211Z,17.60
2022-08-30T08:58:51.871Z,17.80
2022-08-30T09:01:27.724Z,17.80
2022-08-30T09:03:59.151Z,17.90
2022-08-30T09:07:03.757Z,18.00
2022-08-30T09:09:37.160Z,18.10
2022-08-30T09:12:06.986Z,18.30
2022-08-30T09:14:51.344Z,18.50
2022-08-30T09:17:23.746Z,18.70
2022-08-30T09:19:54.242Z,18.80
2022-08-30T09:22:46.551Z,18.90
2022-08-30T09:25:13.824Z,19.00
2022-08-30T09:27:48.463Z,19.20
2022-08-30T09:30:25.433Z,19.40
2022-08-30T09:32:58.118Z,19.50
2022-08-30T09:35:35.806Z,19.70
2022-08-30T09:38:34.738Z,19.90
2022-08-30T09:41:41.466Z,20.20
2022-08-30T09:44:20.289Z,20.30
2022-08-30T09:46:59.065Z,20.50
2022-08-30T09:49:41.606Z,20.60
2022-08-30T09:52:37.550Z,20.80
2022-08-30T09:55:14.507Z,20.90
2022-08-30T09:58:13.316Z,21.00
2022-08-30T10:01:00.882Z,21.20
2022-08-30T10:04:00.362Z,21.30
2022-08-30T10:06:54.240Z,21.30
2022-08-30T10:10:07.970Z,21.30
2022-08-30T10:12:52.989Z,21.30
2022-08-30T10:15:40.814Z,21.40
2022-08-30T10:18:20.012Z,21.50
2022-08-30T10:21:07.077Z,21.50
2022-08-30T10:23:53.926Z,21.50
2022-08-30T10:26:27.030Z,21.80
2022-08-30T10:29:22.431Z,21.80
2022-08-30T10:32:17.711Z,22.00
2022-08-30T10:35:19.188Z,22.10
2022-08-30T10:38:04.878Z,22.40
2022-08-30T10:40:56.380Z,22.50
2022-08-30T10:43:33.659Z,22.60
2022-08-30T10:46:11.280Z,22.60
2022-08-30T10:48:47.454Z,22.70
2022-08-30T10:51:32.841Z,22.80
2022-08-30T10:57:04.589Z,23.10
2022-08-30T10:59:34.719Z,23.30
2022-08-30T11:03:01.004Z,23.50
2022-08-30T11:06:01.300Z,23.60
2022-08-30T11:08:53.151Z,23.70
2022-08-30T11:11:37.623Z,23.80
2022-08-30T11:14:14.581Z,23.80
2022-08-30T11:16:51.667Z,23.90
2022-08-30T11:19:41.399Z,24.00
2022-08-30T11:22:14.758Z,24.00
2022-08-30T11:25:14.658Z,24.00
2022-08-30T11:27:56.432Z,24.10
2022-08-30T11:30:27.546Z,24.20
2022-08-30T11:33:25.840Z,24.40
2022-08-30T11:35:53.890Z,24.40
2022-08-30T11:38:26.723Z,24.50
2022-08-30T11:40:57.897Z,24.60
2022-08-30T11:43:34.372Z,24.70
2022-08-30T11:46:28.689Z,24.70
2022-08-30T11:49:16.762Z,24.80
2022-08-30T11:55:09.645Z,25.00
2022-08-30T11:57:58.458Z,25.10
2022-08-30T12:00:34.725Z,25.20
2022-08-30T12:03:32.838Z,25.30
2022-08-30T12:06:09.752Z,25.40
2022-08-30T12:08:48.650Z,25.50
2022-08-30T12:11:15.674Z,25.60
2022-08-30T12:13:42.739Z,25.60
2022-08-30T12:16:12.991Z,25.60
2022-08-30T12:18:50.404Z,25.70
2022-08-30T12:21:21.325Z,25.70
2022-08-30T12:24:36.606Z,25.80
2022-08-30T12:27:32.810Z,25.90
2022-08-30T12:30:07.320Z,25.90
2022-08-30T12:32:44.312Z,25.90
2022-08-30T12:35:23.331Z,25.70
2022-08-30T12:38:12.209Z,26.00
2022-08-30T12:40:51.017Z,25.90
2022-08-30T12:43:41.377Z,25.90
2022-08-30T12:46:15.577Z,25.90
2022-08-30T12:48:45.023Z,25.90
2022-08-30T12:51:37.221Z,25.80
2022-08-30T12:54:25.185Z,25.80
2022-08-30T12:57:19.234Z,25.80
2022-08-30T13:00:01.656Z,25.80
2022-08-30T13:02:53.749Z,25.80
2022-08-30T13:05:44.307Z,25.80
2022-08-30T13:08:48.914Z,25.90
2022-08-30T13:11:22.173Z,26.10
2022-08-30T13:13:53.206Z,26.20
2022-08-30T13:16:23.437Z,26.20
2022-08-30T13:19:32.712Z,26.20
2022-08-30T13:22:01.423Z,26.30
2022-08-30T13:24:30.605Z,26.20
2022-08-30T13:27:06.680Z,26.20
2022-08-30T13:29:33.950Z,26.10
2022-08-30T13:32:01.119Z,26.00
2022-08-30T13:34:33.083Z,25.90
2022-08-30T13:37:02.250Z,25.90
2022-08-30T13:39:30.086Z,25.80
2022-08-30T13:42:31.619Z,25.80
2022-08-30T13:44:44.449Z,25.80
2022-08-30T13:47:32.872Z,25.80
2022-08-30T13:50:00.624Z,25.80
2022-08-30T13:52:28.413Z,25.80
2022-08-30T13:54:57.642Z,25.80
2022-08-30T14:00:21.763Z,26.00
2022-08-30T14:02:54.549Z,26.20
2022-08-30T14:06:05.208Z,26.30
2022-08-30T14:08:48.110Z,26.60
2022-08-30T14:11:21.106Z,26.80
2022-08-30T14:16:44.336Z,27.10
2022-08-30T14:19:14.746Z,27.10
2022-08-30T14:21:43.118Z,27.10
2022-08-30T14:24:13.950Z,27.00
2022-08-30T14:26:48.927Z,26.90
2022-08-30T14:29:22.155Z,26.90
2022-08-30T14:31:49.600Z,26.80
2022-08-30T14:34:18.281Z,26.80
2022-08-30T14:36:46.386Z,26.70
2022-08-30T14:39:18.079Z,26.70
2022-08-30T14:41:50.249Z,26.70
2022-08-30T14:44:20.119Z,26.70
2022-08-30T14:46:48.697Z,26.70
2022-08-30T14:49:20.269Z,26.60
2022-08-30T14:51:48.581Z,26.60
2022-08-30T14:54:25.755Z,26.60
2022-08-30T14:56:54.609Z,26.60
2022-08-30T14:59:23.394Z,26.60
2022-08-30T15:01:50.515Z,26.50
2022-08-30T15:04:18.331Z,26.40
2022-08-30T15:06:49.467Z,26.30
2022-08-30T15:09:23.203Z,26.30
2022-08-30T15:11:53.875Z,26.20
2022-08-30T15:14:23.068Z,26.20
2022-08-30T15:16:50.347Z,26.10
2022-08-30T15:19:17.917Z,26.00
2022-08-30T15:21:48.476Z,26.00
2022-08-30T15:24:20.219Z,26.00
2022-08-30T15:26:54.812Z,25.90
2022-08-30T15:29:23.249Z,25.90
2022-08-30T15:31:51.769Z,25.90
2022-08-30T15:34:27.928Z,25.90
2022-08-30T15:36:56.171Z,25.90
2022-08-30T15:39:24.396Z,26.00
2022-08-30T15:41:55.702Z,26.00
2022-08-30T15:44:26.024Z,26.10
2022-08-30T15:46:53.343Z,26.10
2022-08-30T15:49:23.096Z,26.20
2022-08-30T15:51:54.172Z,26.20
2022-08-30T15:54:23.908Z,26.30
2022-08-30T15:56:59.072Z,26.30
2022-08-30T15:59:29.316Z,26.30
2022-08-30T16:01:57.898Z,26.30
2022-08-30T16:04:25.662Z,26.30
2022-08-30T16:06:53.116Z,26.30
2022-08-30T16:09:20.172Z,26.30
2022-08-30T16:11:48.685Z,26.30
2022-08-30T16:14:16.281Z,26.30
2022-08-30T16:16:43.588Z,26.30
2022-08-30T16:19:10.848Z,26.40
2022-08-30T16:21:39.917Z,26.40
2022-08-30T16:24:10.598Z,26.50
2022-08-30T16:26:43.172Z,26.40
2022-08-30T16:29:12.489Z,26.40
2022-08-30T16:31:43.576Z,26.40
2022-08-30T16:34:13.107Z,26.30
2022-08-30T16:36:40.393Z,26.30
2022-08-30T16:39:09.560Z,26.30
2022-08-30T16:41:37.625Z,26.30
2022-08-30T16:44:06.348Z,26.30
2022-08-30T16:46:34.774Z,26.20
2022-08-30T16:49:03.155Z,26.10
2022-08-30T16:51:32.800Z,26.00
2022-08-30T16:54:07.718Z,25.90
2022-08-30T16:56:36.313Z,25.90
2022-08-30T16:59:09.054Z,25.70
2022-08-30T17:01:39.342Z,25.60
2022-08-30T17:04:08.418Z,25.50
2022-08-30T17:06:35.823Z,25.50
2022-08-30T17:09:05.373Z,25.40
2022-08-30T17:11:34.840Z,25.30
2022-08-30T17:14:02.630Z,25.20
2022-08-30T17:16:30.220Z,25.10
2022-08-30T17:19:01.127Z,24.90
2022-08-30T17:21:31.568Z,24.90
2022-08-30T17:24:02.340Z,24.80
2022-08-30T17:26:36.021Z,24.70
2022-08-30T17:29:05.303Z,24.60
2022-08-30T17:31:34.519Z,24.50
2022-08-30T17:34:04.291Z,24.40
2022-08-30T17:36:36.940Z,24.30
2022-08-30T17:39:10.484Z,24.30
2022-08-30T17:41:38.072Z,24.20
2022-08-30T17:44:05.806Z,24.10
2022-08-30T17:46:35.171Z,24.00
2022-08-30T17:49:02.850Z,24.00
2022-08-30T17:51:31.782Z,23.80
2022-08-30T17:54:00.125Z,23.70
2022-08-30T17:56:34.103Z,23.60
2022-08-30T17:59:17.775Z,23.50
2022-08-30T18:01:45.852Z,23.40
2022-08-30T18:04:19.557Z,23.30
2022-08-30T18:06:47.529Z,23.20
2022-08-30T18:09:14.834Z,23.10
2022-08-30T18:11:42.177Z,23.00
2022-08-30T18:14:11.381Z,22.90
2022-08-30T18:16:50.009Z,22.80
2022-08-30T18:19:21.750Z,22.70
2022-08-30T18:21:48.962Z,22.70
2022-08-30T18:24:17.568Z,22.60
2022-08-30T18:26:44.778Z,22.60
2022-08-30T18:29:12.039Z,22.60
2022-08-30T18:31:39.811Z,22.50
2022-08-30T18:34:07.117Z,22.50
2022-08-30T18:36:40.395Z,22.40
2022-08-30T18:39:09.050Z,22.40
2022-08-30T18:41:43.018Z,22.30
2022-08-30T18:44:27.291Z,22.20
2022-08-30T18:47:32.117Z,22.10
2022-08-30T18:49:43.388Z,22.10
2022-08-30T18:52:11.379Z,22.00
2022-08-30T18:54:48.436Z,21.90
2022-08-30T18:57:19.322Z,21.80
2022-08-30T18:59:46.592Z,21.70
2022-08-30T19:02:16.503Z,21.70
2022-08-30T19:04:45.838Z,21.60
2022-08-30T19:07:15.608Z,21.50
2022-08-30T19:09:43.293Z,21.50
2022-08-30T19:12:12.758Z,21.40
2022-08-30T19:14:40.621Z,21.60
2022-08-30T19:17:08.206Z,21.30
2022-08-30T19:19:48.515Z,21.20
2022-08-30T19:22:17.859Z,21.20
2022-08-30T19:24:46.981Z,21.10
2022-08-30T19:27:14.477Z,21.00
2022-08-30T19:29:44.670Z,21.00
2022-08-30T19:32:13.197Z,20.90
2022-08-30T19:34:40.415Z,20.80
2022-08-30T19:37:07.850Z,20.70
2022-08-30T19:39:42.401Z,20.70
2022-08-30T19:42:09.696Z,20.60
2022-08-30T19:44:37.369Z,20.50
2022-08-30T19:47:06.417Z,20.40
2022-08-30T19:49:35.922Z,20.40
2022-08-30T19:52:03.742Z,20.30
2022-08-30T19:54:31.012Z,20.30
2022-08-30T19:56:58.170Z,20.20
2022-08-30T19:59:27.600Z,20.20
2022-08-30T20:01:56.981Z,20.20
2022-08-30T20:04:24.252Z,20.10
2022-08-30T20:06:51.365Z,19.90
2022-08-30T20:09:19.054Z,20.00
2022-08-30T20:11:46.987Z,19.90
2022-08-30T20:14:19.768Z,19.80
2022-08-30T20:16:47.540Z,19.80
2022-08-30T20:19:17.060Z,19.80
2022-08-30T20:21:46.285Z,19.70
2022-08-30T20:24:14.535Z,19.60
2022-08-30T20:26:42.169Z,19.60
2022-08-30T20:29:09.481Z,19.50
2022-08-30T20:31:38.673Z,19.50
2022-08-30T20:34:06.049Z,19.40
2022-08-30T20:36:33.883Z,19.40
2022-08-30T20:39:02.179Z,19.30
2022-08-30T20:41:30.795Z,19.30
2022-08-30T20:43:58.367Z,19.20
2022-08-30T20:46:25.790Z,19.10
2022-08-30T20:48:54.176Z,19.10
2022-08-30T20:51:24.788Z,19.00
2022-08-30T20:53:52.414Z,19.00
2022-08-30T20:56:27.747Z,18.90
2022-08-30T20:58:55.632Z,18.80
2022-08-30T21:01:23.613Z,18.80
2022-08-30T21:03:50.891Z,18.80
2022-08-30T21:06:17.999Z,18.70
2022-08-30T21:08:45.197Z,18.70
2022-08-30T21:11:12.551Z,18.60
2022-08-30T21:13:39.854Z,18.60
2022-08-30T21:16:08.258Z,18.60
2022-08-30T21:18:40.348Z,18.50
2022-08-30T21:21:22.255Z,18.50
2022-08-30T21:23:51.057Z,18.40
2022-08-30T21:26:19.663Z,18.40
2022-08-30T21:28:52.952Z,18.30
2022-08-30T21:31:25.348Z,18.30
2022-08-30T21:33:54.887Z,18.30
2022-08-30T21:36:43.626Z,18.30
2022-08-30T21:39:13.905Z,18.20
2022-08-30T21:41:41.192Z,18.10
2022-08-30T21:44:17.285Z,18.10
2022-08-30T21:46:45.209Z,18.00
2022-08-30T21:49:16.488Z,18.00
2022-08-30T21:51:46.501Z,18.00
2022-08-30T21:54:16.113Z,17.90
2022-08-30T21:56:46.613Z,17.90
2022-08-30T21:59:14.909Z,17.80
2022-08-30T22:01:43.371Z,17.80
2022-08-30T22:04:12.880Z,17.70
2022-08-30T22:06:45.559Z,17.70
2022-08-30T22:09:14.472Z,17.70
2022-08-30T22:11:44.389Z,17.60
2022-08-30T22:14:13.493Z,17.60
2022-08-30T22:16:42.012Z,17.50
2022-08-30T22:19:09.404Z,17.50
2022-08-30T22:21:38.221Z,17.50
2022-08-30T22:24:06.004Z,17.40
2022-08-30T22:26:34.487Z,17.40
2022-08-30T22:29:02.510Z,17.40
2022-08-30T22:31:29.710Z,17.30
2022-08-30T22:33:56.826Z,17.30
2022-08-30T22:36:32.682Z,17.20
2022-08-30T22:39:03.502Z,17.20
2022-08-30T22:41:34.042Z,17.10
2022-08-30T22:44:02.834Z,17.10
2022-08-30T22:46:34.537Z,17.10
2022-08-30T22:49:07.887Z,17.10
2022-08-30T22:51:35.567Z,17.10
2022-08-30T22:54:05.064Z,17.00
2022-08-30T22:56:35.336Z,17.00
2022-08-30T22:59:03.426Z,17.00
2022-08-30T23:01:38.764Z,16.90
2022-08-30T23:04:08.144Z,16.90
2022-08-30T23:06:35.893Z,16.90
2022-08-30T23:09:05.392Z,16.80
2022-08-30T23:11:33.629Z,16.80
2022-08-30T23:14:02.944Z,16.80
2022-08-30T23:16:30.295Z,16.80
2022-08-30T23:18:57.483Z,16.80
2022-08-30T23:21:28.468Z,16.70
2022-08-30T23:24:16.228Z,16.70
2022-08-30T23:27:03.756Z,16.70
2022-08-30T23:29:50.864Z,16.60
2022-08-30T23:32:37.446Z,16.60
2022-08-30T23:35:29.146Z,16.40
2022-08-30T23:38:18.246Z,16.50
2022-08-30T23:41:03.634Z,16.40
2022-08-30T23:43:49.832Z,16.40
2022-08-30T23:46:35.172Z,16.40
2022-08-30T23:49:21.164Z,16.40
2022-08-30T23:52:06.524Z,16.30
2022-08-30T23:54:57.191Z,16.30
2022-08-30T23:57:45.089Z,16.20
